Time;durP1;ratioP1;P1;durP2;ratioP2;P2;SDS_P1;SDS_P2;PMS_P1;PMS_P2;Temp;Humidity;BMP_temperature;BMP_pressure;BME280_temperature;BME280_humidity;BME280_pressure;Samples;Min_cycle;Max_cycle;Signal;HPM_P1;HPM_P2
2022/12/20 00:01:54;;;;;;;3.70;3.50;;;10.80;99.90;;;;;;4950731;29;20193;-65
2022/12/20 00:05:01;;;;;;;6.50;3.53;;;10.70;99.90;;;;;;4952781;29;20626;-65
2022/12/20 00:07:29;;;;;;;4.23;3.73;;;10.70;99.90;;;;;;4983492;28;20188;-65
2022/12/20 00:09:57;;;;;;;4.60;3.53;;;10.60;99.90;;;;;;4951880;28;20546;-65
2022/12/20 00:12:26;;;;;;;5.63;3.70;;;10.60;99.90;;;;;;4951909;28;20300;-65
2022/12/20 00:14:54;;;;;;;3.87;3.57;;;10.50;99.90;;;;;;4985528;28;20223;-65
2022/12/20 00:17:24;;;;;;;10.37;4.50;;;10.50;99.90;;;;;;4955092;29;20199;-65
2022/12/20 00:19:52;;;;;;;4.10;3.70;;;10.50;99.90;;;;;;4954848;28;20236;-66
2022/12/20 00:22:21;;;;;;;3.87;3.57;;;10.40;99.90;;;;;;4955308;28;20203;-65
2022/12/20 00:24:49;;;;;;;4.33;3.70;;;10.30;99.90;;;;;;4955285;28;20206;-65
2022/12/20 00:27:17;;;;;;;4.87;3.93;;;10.20;99.90;;;;;;4986023;28;20211;-65
2022/12/20 00:29:46;;;;;;;6.07;4.20;;;10.10;99.90;;;;;;4955491;28;20188;-65
2022/12/20 00:32:14;;;;;;;5.83;4.30;;;9.90;99.90;;;;;;4985892;28;20192;-65
2022/12/20 00:34:44;;;;;;;4.83;4.50;;;9.90;99.90;;;;;;4953575;28;20192;-64
2022/12/20 00:37:12;;;;;;;4.37;4.07;;;9.90;99.90;;;;;;4954749;28;20207;-64
2022/12/20 00:39:40;;;;;;;4.40;4.10;;;9.80;99.90;;;;;;4954765;28;20196;-65
2022/12/20 00:42:09;;;;;;;4.60;4.27;;;9.80;99.90;;;;;;4954783;28;20192;-65
2022/12/20 00:44:37;;;;;;;4.23;3.83;;;9.80;99.90;;;;;;4954930;28;20203;-64
2022/12/20 00:47:06;;;;;;;6.70;4.70;;;9.80;99.90;;;;;;4954895;28;20655;-64
2022/12/20 00:49:34;;;;;;;4.23;3.93;;;9.80;99.90;;;;;;4954641;28;20236;-65
2022/12/20 00:52:04;;;;;;;6.07;4.47;;;9.80;99.90;;;;;;4954573;29;20199;-64
2022/12/20 00:54:32;;;;;;;6.40;4.67;;;9.80;99.90;;;;;;4955086;28;20208;-65
2022/12/20 00:57:00;;;;;;;5.53;4.70;;;9.80;99.90;;;;;;4954803;28;20643;-64
2022/12/20 00:59:29;;;;;;;5.17;4.30;;;9.80;99.90;;;;;;4954611;29;20279;-65
2022/12/20 01:01:57;;;;;;;5.13;4.70;;;9.70;99.90;;;;;;4954407;28;20208;-65
2022/12/20 01:04:26;;;;;;;8.27;4.60;;;9.80;99.90;;;;;;4954396;28;20283;-65
2022/12/20 01:06:56;;;;;;;4.57;4.17;;;9.70;99.90;;;;;;4955009;29;20200;-65
2022/12/20 01:09:25;;;;;;;6.43;4.43;;;9.80;99.90;;;;;;4954348;28;20612;-65
2022/12/20 01:11:55;;;;;;;5.23;4.03;;;9.70;99.90;;;;;;4954309;28;20543;-65
2022/12/20 01:14:23;;;;;;;4.60;4.20;;;9.70;99.90;;;;;;4954869;28;20220;-65
2022/12/20 01:16:52;;;;;;;4.50;4.10;;;9.70;99.90;;;;;;4954198;28;20193;-64
2022/12/20 01:19:20;;;;;;;4.10;3.80;;;9.80;99.90;;;;;;4953988;28;20232;-65
2022/12/20 01:21:48;;;;;;;5.00;4.27;;;9.80;99.90;;;;;;4954315;28;20227;-65
2022/12/20 01:24:19;;;;;;;5.87;4.37;;;9.80;99.90;;;;;;4954496;28;20200;-65
2022/12/20 01:26:50;;;;;;;5.03;3.80;;;9.80;99.90;;;;;;4954897;28;20187;-65
2022/12/20 01:29:18;;;;;;;4.20;3.80;;;9.80;99.90;;;;;;4954315;29;20663;-65
2022/12/20 01:31:49;;;;;;;3.70;3.50;;;9.90;99.90;;;;;;4954591;29;20184;-65
2022/12/20 01:34:17;;;;;;;4.43;3.70;;;9.90;99.90;;;;;;4954536;29;20709;-65
2022/12/20 01:36:46;;;;;;;6.20;3.80;;;9.90;99.90;;;;;;4953913;29;20203;-65
2022/12/20 01:39:16;;;;;;;3.67;3.47;;;9.90;99.90;;;;;;4954602;29;20203;-65
2022/12/20 01:41:45;;;;;;;4.23;3.80;;;10.00;99.90;;;;;;4954118;29;20216;-65
2022/12/20 01:44:54;;;;;;;6.17;3.67;;;10.00;99.90;;;;;;4954157;28;20200;-64
2022/12/20 01:47:24;;;;;;;3.40;3.20;;;10.10;99.90;;;;;;4953803;28;20543;-65
2022/12/20 01:49:58;;;;;;;3.63;3.43;;;10.20;99.90;;;;;;4952569;29;20298;-64
2022/12/20 01:52:32;;;;;;;6.77;3.50;;;10.30;99.90;;;;;;4953726;29;20185;-65
2022/12/20 01:55:07;;;;;;;3.87;3.53;;;10.30;99.90;;;;;;4954001;28;20223;-65
2022/12/20 01:57:40;;;;;;;5.27;3.73;;;10.30;99.90;;;;;;4953639;28;20192;-65
2022/12/20 02:00:12;;;;;;;3.53;3.27;;;10.30;99.90;;;;;;4968881;28;20295;-65
2022/12/20 02:07:27;;;;;;;5.57;3.60;;;10.30;99.90;;;;;;4953603;29;20512;-65
2022/12/20 02:09:58;;;;;;;4.30;3.67;;;10.40;99.90;;;;;;4953919;29;20283;-65
2022/12/20 02:12:30;;;;;;;3.73;3.43;;;10.40;99.90;;;;;;4952544;28;20188;-68
2022/12/20 02:15:29;;;;;;;3.70;3.40;;;10.40;99.90;;;;;;4953548;28;20219;-69
2022/12/20 02:18:10;;;;;;;3.57;3.27;;;10.40;99.90;;;;;;4945070;28;20205;-68
2022/12/20 02:21:02;;;;;;;3.70;3.40;;;10.40;99.90;;;;;;4945986;28;20254;-68
2022/12/20 02:23:53;;;;;;;4.47;3.60;;;10.40;99.90;;;;;;4948401;28;20203;-68
2022/12/20 02:26:53;;;;;;;3.27;3.17;;;10.40;99.90;;;;;;4946260;28;20202;-68
2022/12/20 02:29:26;;;;;;;3.43;3.23;;;10.40;99.90;;;;;;4940904;28;20513;-69
2022/12/20 02:32:03;;;;;;;3.47;3.03;;;10.50;99.90;;;;;;4947445;28;20200;-68
2022/12/20 02:34:33;;;;;;;4.63;3.80;;;10.50;99.90;;;;;;4945484;28;20673;-68
2022/12/20 02:37:02;;;;;;;3.20;3.10;;;10.50;99.90;;;;;;4946288;28;20270;-69
2022/12/20 02:39:33;;;;;;;5.57;3.50;;;10.50;99.90;;;;;;4947833;28;20196;-69
2022/12/20 02:42:05;;;;;;;3.80;3.50;;;10.60;99.90;;;;;;4946490;28;20224;-69
2022/12/20 02:47:31;;;;;;;3.67;3.43;;;10.70;99.90;;;;;;4947906;28;20226;-69
2022/12/20 02:50:01;;;;;;;4.97;3.53;;;10.70;99.90;;;;;;4938029;28;20526;-68
2022/12/20 02:52:31;;;;;;;5.50;3.40;;;10.70;99.90;;;;;;4953322;28;20198;-69
2022/12/20 02:55:01;;;;;;;3.73;3.40;;;10.70;99.90;;;;;;4945993;28;20567;-68
2022/12/20 02:57:38;;;;;;;3.47;3.27;;;10.70;99.90;;;;;;4949752;28;20254;-68
2022/12/20 03:00:10;;;;;;;3.63;3.37;;;10.80;99.90;;;;;;4950079;28;20206;-69
2022/12/20 03:05:28;;;;;;;3.70;3.40;;;10.80;99.90;;;;;;4945429;29;20208;-68
2022/12/20 03:07:56;;;;;;;4.17;3.17;;;10.70;99.90;;;;;;4941686;28;20611;-69
2022/12/20 03:10:26;;;;;;;5.23;3.67;;;10.70;99.90;;;;;;4950312;28;20204;-68
2022/12/20 03:12:56;;;;;;;3.67;3.37;;;10.70;99.90;;;;;;4953623;28;20720;-69
2022/12/20 03:15:25;;;;;;;3.80;3.50;;;10.80;99.90;;;;;;4946256;28;20676;-68
2022/12/20 03:17:55;;;;;;;4.07;3.50;;;10.80;99.90;;;;;;4953890;28;20558;-69
2022/12/20 03:20:23;;;;;;;4.50;3.67;;;10.80;99.90;;;;;;4950819;28;20706;-69
2022/12/20 03:22:51;;;;;;;3.67;3.40;;;10.70;99.90;;;;;;4951141;29;20216;-68
2022/12/20 03:25:20;;;;;;;3.50;3.30;;;10.70;99.90;;;;;;4950314;28;20208;-68
2022/12/20 03:27:48;;;;;;;3.70;3.50;;;10.80;99.90;;;;;;4951410;28;20200;-69
2022/12/20 03:30:17;;;;;;;3.90;3.40;;;10.90;99.90;;;;;;4945771;28;20204;-69
2022/12/20 03:32:45;;;;;;;4.27;3.40;;;10.90;99.90;;;;;;4951319;29;20195;-68
2022/12/20 03:35:16;;;;;;;3.13;2.67;;;10.90;99.90;;;;;;4942045;28;20224;-69
2022/12/20 03:37:44;;;;;;;3.47;2.70;;;10.90;99.90;;;;;;4950210;28;20208;-68
2022/12/20 03:40:14;;;;;;;4.33;3.50;;;10.90;99.90;;;;;;4943041;28;20200;-69
2022/12/20 03:42:43;;;;;;;3.63;3.30;;;10.90;99.90;;;;;;5038837;28;20211;-69
2022/12/20 03:45:11;;;;;;;4.07;3.50;;;10.90;99.90;;;;;;4942657;28;20200;-69
2022/12/20 03:47:40;;;;;;;3.47;3.20;;;10.80;99.90;;;;;;4945095;28;20224;-69
2022/12/20 03:50:09;;;;;;;3.40;3.20;;;10.80;99.90;;;;;;4947853;28;20619;-69
2022/12/20 03:52:39;;;;;;;3.47;3.27;;;10.70;99.90;;;;;;4957151;28;20188;-69
2022/12/20 03:55:08;;;;;;;3.97;3.57;;;10.70;99.90;;;;;;4948784;28;20206;-70
2022/12/20 03:57:36;;;;;;;3.77;3.47;;;10.70;99.90;;;;;;5047200;28;20204;-69
2022/12/20 04:00:06;;;;;;;3.57;3.20;;;10.70;99.90;;;;;;4947655;28;20200;-69
2022/12/20 04:02:37;;;;;;;4.30;3.60;;;10.70;99.90;;;;;;4952120;28;20220;-69
2022/12/20 04:05:06;;;;;;;5.13;3.37;;;10.70;99.90;;;;;;4949625;28;20196;-69
2022/12/20 04:07:35;;;;;;;6.53;3.40;;;10.70;99.90;;;;;;4944350;28;20199;-69
2022/12/20 04:10:05;;;;;;;4.33;3.50;;;10.80;99.90;;;;;;4949750;28;20658;-69
2022/12/20 04:12:34;;;;;;;3.70;3.40;;;10.80;99.90;;;;;;4953520;28;20646;-69
2022/12/20 04:15:03;;;;;;;3.57;3.20;;;10.80;99.90;;;;;;4950493;28;20215;-69
2022/12/20 04:17:31;;;;;;;4.93;3.23;;;10.80;99.90;;;;;;4960372;28;20211;-69
2022/12/20 04:20:17;;;;;;;4.63;3.27;;;10.80;99.90;;;;;;4951469;28;20243;-69
2022/12/20 04:22:48;;;;;;;4.80;3.20;;;10.90;99.90;;;;;;4939104;28;20213;-69
2022/12/20 04:25:20;;;;;;;4.80;2.80;;;10.90;99.90;;;;;;4950552;28;20203;-69
2022/12/20 04:27:50;;;;;;;6.30;3.63;;;10.90;99.90;;;;;;4959186;28;20257;-69
2022/12/20 04:30:19;;;;;;;3.57;3.27;;;11.00;99.90;;;;;;4947575;28;20200;-69
2022/12/20 04:32:47;;;;;;;3.37;3.07;;;11.00;99.90;;;;;;4953689;28;20651;-69
2022/12/20 04:35:15;;;;;;;5.70;3.37;;;11.00;99.90;;;;;;4950781;28;20215;-69
2022/12/20 04:37:44;;;;;;;3.93;3.33;;;11.00;99.90;;;;;;4974586;28;20193;-68
2022/12/20 04:40:13;;;;;;;3.10;2.90;;;10.90;99.90;;;;;;4952944;28;20208;-68
2022/12/20 04:42:43;;;;;;;3.33;3.13;;;10.90;99.90;;;;;;4958173;28;20303;-68
2022/12/20 04:45:12;;;;;;;3.10;2.80;;;11.00;99.90;;;;;;4951063;28;20205;-68
2022/12/20 04:47:41;;;;;;;2.80;2.70;;;11.00;99.90;;;;;;4955549;28;20196;-69
2022/12/20 04:50:09;;;;;;;5.80;3.00;;;11.00;99.90;;;;;;4951162;28;20196;-69
2022/12/20 04:55:24;;;;;;;4.47;2.73;;;10.90;99.90;;;;;;4947355;28;20202;-69
2022/12/20 04:57:54;;;;;;;3.00;2.80;;;10.90;99.90;;;;;;4952507;28;20196;-68
2022/12/20 05:00:22;;;;;;;2.70;2.60;;;10.80;99.90;;;;;;4950406;28;20212;-68
2022/12/20 05:03:06;;;;;;;6.10;3.33;;;10.80;99.90;;;;;;4947089;28;20654;-68
2022/12/20 05:05:35;;;;;;;5.43;3.00;;;10.80;99.90;;;;;;4933216;29;20192;-69
2022/12/20 05:08:03;;;;;;;4.57;3.03;;;10.80;99.90;;;;;;4949539;28;20201;-69
2022/12/20 05:10:32;;;;;;;4.07;2.80;;;10.70;99.90;;;;;;4951797;28;20217;-69
2022/12/20 05:13:01;;;;;;;3.77;2.80;;;10.60;99.90;;;;;;4947290;28;20557;-69
2022/12/20 05:15:37;;;;;;;2.93;2.60;;;10.70;99.90;;;;;;4953513;28;20650;-68
2022/12/20 05:18:05;;;;;;;2.90;2.70;;;10.70;99.90;;;;;;4953552;28;20196;-68
2022/12/20 05:20:33;;;;;;;5.23;2.77;;;10.70;99.90;;;;;;4952964;28;20719;-69
2022/12/20 05:28:37;;;;;;;2.73;2.53;;;10.70;99.90;;;;;;4950401;28;20210;-68
2022/12/20 05:31:06;;;;;;;3.63;2.70;;;10.70;99.90;;;;;;4953046;28;20207;-69
2022/12/20 05:33:37;;;;;;;4.47;2.80;;;10.80;99.90;;;;;;4947691;28;20199;-68
2022/12/20 05:36:05;;;;;;;2.80;2.57;;;10.80;99.90;;;;;;4948120;28;20196;-68
2022/12/20 05:38:35;;;;;;;3.90;2.77;;;10.80;99.90;;;;;;4948654;28;20209;-68
2022/12/20 05:41:05;;;;;;;3.40;2.90;;;10.80;99.90;;;;;;4947317;28;20215;-69
2022/12/20 05:43:34;;;;;;;2.80;2.70;;;10.80;99.90;;;;;;4944758;28;20216;-68
2022/12/20 05:46:04;;;;;;;3.00;2.80;;;10.80;99.90;;;;;;4941575;28;20677;-69
2022/12/20 05:48:32;;;;;;;8.90;2.87;;;10.80;99.90;;;;;;4952635;28;20235;-68
2022/12/20 05:51:01;;;;;;;4.93;2.67;;;10.80;99.90;;;;;;4949331;28;20254;-68
2022/12/20 05:53:29;;;;;;;2.90;2.60;;;10.80;99.90;;;;;;4950684;28;20551;-68
2022/12/20 05:55:58;;;;;;;2.90;2.70;;;10.70;99.90;;;;;;4948499;28;20192;-68
2022/12/20 05:58:27;;;;;;;3.93;2.67;;;10.80;99.90;;;;;;4950087;28;20670;-68
2022/12/20 06:00:56;;;;;;;4.63;2.90;;;10.80;99.90;;;;;;4973156;28;20218;-68
2022/12/20 06:03:26;;;;;;;2.60;2.50;;;10.90;99.90;;;;;;4948601;28;20682;-68
2022/12/20 06:05:54;;;;;;;3.50;2.30;;;10.90;99.90;;;;;;4947167;28;20202;-68
2022/12/20 06:08:23;;;;;;;2.60;2.47;;;10.90;99.90;;;;;;4953828;28;20208;-68
2022/12/20 06:10:52;;;;;;;3.40;2.70;;;10.90;99.90;;;;;;4944048;28;20200;-69
2022/12/20 06:13:20;;;;;;;3.43;2.90;;;10.90;99.90;;;;;;4948272;28;20222;-68
2022/12/20 06:15:49;;;;;;;2.53;2.43;;;11.00;99.90;;;;;;4943776;28;20601;-68
2022/12/20 06:18:18;;;;;;;4.93;2.50;;;11.00;99.90;;;;;;4949897;28;20729;-67
2022/12/20 06:20:51;;;;;;;3.50;2.40;;;11.00;99.90;;;;;;4948368;28;20196;-68
2022/12/20 06:23:20;;;;;;;5.90;2.30;;;11.00;99.90;;;;;;4949808;28;20212;-68
2022/12/20 06:25:48;;;;;;;2.73;2.63;;;11.00;99.90;;;;;;4947049;28;20197;-68
2022/12/20 06:28:20;;;;;;;4.93;2.53;;;11.00;99.90;;;;;;4949072;28;20211;-68
2022/12/20 06:30:52;;;;;;;3.90;3.00;;;11.00;99.90;;;;;;4942032;28;20591;-68
2022/12/20 06:33:21;;;;;;;2.50;2.30;;;11.10;99.90;;;;;;4946712;28;20279;-69
2022/12/20 06:35:51;;;;;;;5.17;2.50;;;11.10;99.90;;;;;;4947630;28;20204;-69
2022/12/20 06:38:20;;;;;;;4.50;2.40;;;11.10;99.90;;;;;;4945747;28;20205;-69
2022/12/20 06:40:48;;;;;;;2.57;2.47;;;11.10;99.90;;;;;;4945627;28;20749;-69
2022/12/20 06:43:16;;;;;;;2.77;2.50;;;11.00;99.90;;;;;;4948974;29;20219;-69
2022/12/20 06:45:45;;;;;;;3.83;2.67;;;10.90;99.90;;;;;;4935677;28;20203;-69
2022/12/20 06:48:13;;;;;;;4.80;2.53;;;10.80;99.90;;;;;;4968798;28;20544;-70
2022/12/20 06:50:42;;;;;;;4.23;2.50;;;10.80;99.90;;;;;;4943599;28;20196;-70
2022/12/20 06:53:11;;;;;;;3.00;2.70;;;10.70;99.90;;;;;;4950993;28;20218;-70
2022/12/20 06:55:42;;;;;;;2.60;2.43;;;10.70;99.90;;;;;;4941730;28;20212;-70
2022/12/20 06:58:12;;;;;;;3.37;2.67;;;10.60;99.90;;;;;;4947188;28;20212;-69
2022/12/20 07:00:40;;;;;;;4.53;2.70;;;10.60;99.90;;;;;;4946312;28;20193;-69
2022/12/20 07:03:09;;;;;;;5.27;2.70;;;10.60;99.90;;;;;;4948288;29;20968;-69
2022/12/20 07:05:37;;;;;;;3.07;2.73;;;10.50;99.90;;;;;;4946883;28;20250;-69
2022/12/20 07:08:07;;;;;;;3.07;2.90;;;10.50;99.90;;;;;;4951348;28;20201;-69
2022/12/20 07:10:37;;;;;;;7.53;2.80;;;10.40;99.90;;;;;;4948040;28;20212;-69
2022/12/20 07:13:06;;;;;;;2.83;2.60;;;10.30;99.90;;;;;;4982715;28;20282;-70
2022/12/20 07:15:34;;;;;;;3.10;2.73;;;10.30;99.90;;;;;;4952736;28;20204;-69
2022/12/20 07:18:02;;;;;;;2.97;2.77;;;10.30;99.90;;;;;;4952937;28;20195;-70
2022/12/20 07:20:31;;;;;;;3.27;3.07;;;10.30;99.90;;;;;;4947302;29;20251;-70
2022/12/20 07:22:59;;;;;;;4.50;3.10;;;10.20;99.90;;;;;;4946504;28;20208;-70
2022/12/20 07:25:28;;;;;;;4.67;2.93;;;10.20;99.90;;;;;;4950401;28;20371;-70
2022/12/20 07:27:57;;;;;;;3.67;3.07;;;10.20;99.90;;;;;;4939390;28;20196;-70
2022/12/20 07:30:25;;;;;;;7.27;3.30;;;10.20;99.90;;;;;;4942965;28;20238;-70
2022/12/20 07:32:54;;;;;;;3.13;2.93;;;10.20;99.90;;;;;;4946785;28;20211;-69
2022/12/20 07:35:22;;;;;;;7.00;3.17;;;10.20;99.90;;;;;;4948847;28;20188;-69
2022/12/20 07:37:53;;;;;;;5.63;3.23;;;10.20;99.90;;;;;;4943753;28;20208;-70
2022/12/20 07:40:21;;;;;;;5.53;3.50;;;10.10;99.90;;;;;;4953717;28;20696;-70
2022/12/20 07:42:49;;;;;;;3.37;3.17;;;10.20;99.90;;;;;;4941955;28;20212;-69
2022/12/20 07:45:19;;;;;;;4.63;3.30;;;10.10;99.90;;;;;;4942221;28;20227;-70
2022/12/20 07:47:49;;;;;;;5.30;3.37;;;10.10;99.90;;;;;;4943758;28;20277;-70
2022/12/20 07:50:17;;;;;;;4.43;3.70;;;10.10;99.90;;;;;;4950602;28;20196;-70
2022/12/20 07:52:47;;;;;;;5.40;3.30;;;10.10;99.90;;;;;;4945315;28;20193;-69
2022/12/20 07:55:16;;;;;;;5.40;3.67;;;10.00;99.90;;;;;;4964006;28;20207;-69
2022/12/20 07:57:47;;;;;;;6.63;3.70;;;10.00;99.90;;;;;;4968105;28;20211;-69
2022/12/20 08:00:17;;;;;;;6.97;3.70;;;10.00;99.90;;;;;;4945791;28;20274;-69
2022/12/20 08:02:52;;;;;;;4.93;4.00;;;10.00;99.90;;;;;;4949600;28;20280;-69
2022/12/20 08:05:23;;;;;;;6.63;3.53;;;10.00;99.90;;;;;;4943407;28;20742;-70
2022/12/20 08:07:53;;;;;;;4.00;3.60;;;10.00;99.90;;;;;;4943530;28;20204;-69
2022/12/20 08:10:27;;;;;;;5.53;3.60;;;10.00;99.90;;;;;;4946421;28;20709;-69
2022/12/20 08:12:57;;;;;;;6.00;3.60;;;10.00;99.90;;;;;;4947600;28;20200;-69
2022/12/20 08:15:26;;;;;;;7.47;3.77;;;10.00;99.90;;;;;;4946985;28;20196;-69
2022/12/20 08:17:56;;;;;;;5.63;3.90;;;9.90;99.90;;;;;;4924316;28;20280;-69
2022/12/20 08:20:24;;;;;;;8.83;3.87;;;9.80;99.90;;;;;;4943286;28;20280;-69
2022/12/20 08:22:52;;;;;;;8.67;4.40;;;9.90;99.90;;;;;;4947528;28;20193;-69
2022/12/20 08:25:21;;;;;;;5.17;3.77;;;9.80;99.90;;;;;;4947940;28;20237;-69
2022/12/20 08:27:50;;;;;;;6.50;3.77;;;9.80;99.90;;;;;;4941463;28;20298;-69
2022/12/20 08:30:18;;;;;;;6.60;3.80;;;9.80;99.90;;;;;;4948719;28;20918;-70
2022/12/20 08:32:46;;;;;;;8.20;4.00;;;9.80;99.90;;;;;;4948699;28;20207;-69
2022/12/20 08:35:16;;;;;;;6.77;3.93;;;9.80;99.90;;;;;;4960892;28;20192;-69
2022/12/20 08:37:45;;;;;;;8.00;4.13;;;9.80;99.90;;;;;;4957161;28;20824;-69
2022/12/20 08:40:14;;;;;;;6.73;4.17;;;9.80;99.90;;;;;;4957415;28;20706;-69
2022/12/20 08:42:42;;;;;;;10.73;4.63;;;9.80;99.90;;;;;;4952180;28;20651;-69
2022/12/20 08:45:11;;;;;;;9.20;4.13;;;9.90;99.90;;;;;;4951152;28;20223;-69
2022/12/20 08:47:39;;;;;;;6.10;3.70;;;9.90;99.90;;;;;;4951370;28;20200;-68
2022/12/20 08:50:09;;;;;;;8.33;4.10;;;9.90;99.90;;;;;;4951287;28;20197;-69
2022/12/20 08:52:39;;;;;;;4.27;3.80;;;10.00;99.90;;;;;;4953253;29;20563;-69
2022/12/20 08:55:07;;;;;;;8.37;3.77;;;10.00;99.90;;;;;;4955764;28;20205;-69
2022/12/20 08:57:40;;;;;;;5.20;3.80;;;10.00;99.90;;;;;;4956185;28;20195;-69
2022/12/20 09:00:10;;;;;;;6.63;4.53;;;10.00;99.90;;;;;;4945769;28;20188;-69
2022/12/20 09:02:40;;;;;;;5.70;4.00;;;10.00;99.90;;;;;;4944949;28;20196;-68
2022/12/20 09:05:09;;;;;;;4.80;4.03;;;10.00;99.90;;;;;;4948002;28;20309;-69
2022/12/20 09:07:39;;;;;;;5.73;4.23;;;10.00;99.90;;;;;;4950836;28;20259;-69
2022/12/20 09:10:09;;;;;;;7.33;4.13;;;10.00;99.90;;;;;;4964013;28;20204;-69
2022/12/20 09:12:37;;;;;;;8.07;3.97;;;10.00;99.90;;;;;;4949582;28;20263;-69
2022/12/20 09:15:07;;;;;;;5.53;4.30;;;10.00;99.90;;;;;;4950062;28;20231;-68
2022/12/20 09:17:35;;;;;;;8.13;4.30;;;10.00;99.90;;;;;;4948408;28;20202;-69
2022/12/20 09:20:05;;;;;;;6.80;4.40;;;10.00;99.90;;;;;;4949395;28;20228;-68
2022/12/20 09:22:33;;;;;;;6.40;4.50;;;10.00;99.90;;;;;;4929772;28;20657;-69
2022/12/20 09:25:05;;;;;;;5.07;4.67;;;10.00;99.90;;;;;;4947716;28;20216;-69
2022/12/20 09:27:34;;;;;;;5.77;4.60;;;10.10;99.90;;;;;;4949745;28;20201;-69
2022/12/20 09:30:02;;;;;;;4.80;4.40;;;10.00;99.90;;;;;;4948543;28;20211;-69
2022/12/20 09:32:31;;;;;;;5.30;4.80;;;10.00;99.90;;;;;;4953212;28;20555;-69
2022/12/20 09:35:00;;;;;;;8.17;4.20;;;10.00;99.90;;;;;;4942781;28;20606;-69
2022/12/20 09:37:30;;;;;;;7.43;4.00;;;10.00;99.90;;;;;;4952317;28;20617;-69
2022/12/20 09:39:59;;;;;;;11.60;5.10;;;10.00;99.90;;;;;;4946202;28;20200;-68
2022/12/20 09:42:30;;;;;;;8.07;4.50;;;10.00;99.90;;;;;;4949937;29;20196;-69
2022/12/20 09:45:04;;;;;;;7.60;4.60;;;10.00;99.90;;;;;;4953641;28;20208;-70
2022/12/20 09:47:35;;;;;;;7.20;5.23;;;10.00;99.90;;;;;;4966785;28;20211;-69
2022/12/20 09:50:06;;;;;;;4.70;4.30;;;10.00;99.90;;;;;;4947510;28;20204;-70
2022/12/20 09:52:51;;;;;;;7.20;4.77;;;10.00;99.90;;;;;;4949033;28;20246;-70
2022/12/20 09:55:31;;;;;;;10.07;5.00;;;10.00;99.90;;;;;;4946977;28;20239;-70
2022/12/20 09:58:17;;;;;;;10.57;4.73;;;10.00;99.90;;;;;;4975055;28;20563;-70
2022/12/20 10:00:49;;;;;;;9.67;4.50;;;10.00;99.90;;;;;;4949135;28;20196;-68
2022/12/20 10:03:26;;;;;;;8.60;5.00;;;10.00;99.90;;;;;;4949938;28;20218;-69
2022/12/20 10:05:58;;;;;;;11.07;5.10;;;10.00;99.90;;;;;;4945025;28;20300;-69
2022/12/20 10:08:43;;;;;;;9.80;4.70;;;10.00;99.90;;;;;;4943757;28;20204;-69
2022/12/20 10:11:26;;;;;;;10.80;4.90;;;10.00;99.90;;;;;;4950752;28;20204;-69
2022/12/20 10:14:08;;;;;;;5.67;4.57;;;10.00;99.90;;;;;;4943265;28;20756;-69
2022/12/20 10:16:44;;;;;;;8.23;5.00;;;10.10;99.90;;;;;;4944229;28;20199;-69
2022/12/20 10:19:33;;;;;;;8.27;5.00;;;10.10;99.90;;;;;;4947695;28;20236;-69
2022/12/20 10:22:09;;;;;;;7.73;4.60;;;10.10;99.90;;;;;;4952749;28;20220;-69
2022/12/20 10:24:41;;;;;;;8.20;5.00;;;10.10;99.90;;;;;;4950788;28;20192;-69
2022/12/20 10:27:14;;;;;;;9.30;5.00;;;10.20;99.90;;;;;;4998246;28;20696;-69
2022/12/20 10:29:45;;;;;;;7.90;5.43;;;10.20;99.90;;;;;;4982017;28;20581;-69
2022/12/20 10:32:16;;;;;;;8.50;5.10;;;10.20;99.90;;;;;;4946178;28;20197;-69
2022/12/20 10:34:51;;;;;;;5.87;4.97;;;10.20;99.90;;;;;;4952217;28;20205;-69
2022/12/20 10:37:20;;;;;;;10.10;5.17;;;10.30;99.90;;;;;;4987991;28;20212;-69
2022/12/20 10:39:50;;;;;;;11.27;5.10;;;10.30;99.90;;;;;;4947607;28;20197;-69
2022/12/20 10:42:35;;;;;;;10.97;5.37;;;10.30;99.90;;;;;;4945771;28;20828;-69
2022/12/20 10:45:25;;;;;;;7.27;5.80;;;10.30;99.90;;;;;;4947537;28;20199;-70
2022/12/20 10:48:03;;;;;;;7.70;5.23;;;10.30;99.90;;;;;;4944307;28;20213;-69
2022/12/20 10:50:32;;;;;;;10.33;5.20;;;10.40;99.90;;;;;;4945399;28;20196;-69
2022/12/20 10:53:21;;;;;;;7.23;4.83;;;10.40;99.90;;;;;;4950405;28;20203;-69
2022/12/20 10:55:50;;;;;;;8.97;5.67;;;10.40;99.90;;;;;;4949771;28;20199;-69
2022/12/20 10:58:34;;;;;;;7.13;5.55;;;10.40;99.90;;;;;;4947226;28;20448;-69
2022/12/20 11:01:14;;;;;;;6.17;5.00;;;10.40;99.90;;;;;;4947744;28;20211;-69
2022/12/20 11:03:55;;;;;;;8.30;4.90;;;10.40;99.90;;;;;;4948893;28;20651;-69
2022/12/20 11:06:27;;;;;;;8.53;5.10;;;10.40;99.90;;;;;;4944108;28;20211;-69
2022/12/20 11:09:29;;;;;;;8.60;5.30;;;10.40;99.90;;;;;;4944721;28;20196;-69
2022/12/20 11:12:00;;;;;;;8.90;5.20;;;10.40;99.90;;;;;;4945853;28;20262;-69
2022/12/20 11:14:28;;;;;;;9.83;5.27;;;10.50;99.90;;;;;;4943828;28;20599;-69
2022/12/20 11:17:20;;;;;;;8.33;4.80;;;10.40;99.90;;;;;;4939666;28;20203;-69
2022/12/20 11:20:01;;;;;;;6.63;4.80;;;10.40;99.90;;;;;;4948227;28;20319;-69
2022/12/20 11:22:45;;;;;;;7.37;5.30;;;10.40;99.90;;;;;;4946430;29;20200;-68
2022/12/20 11:25:36;;;;;;;6.17;5.00;;;10.40;99.90;;;;;;4934484;28;20193;-68
2022/12/20 11:28:20;;;;;;;8.80;5.03;;;10.40;99.90;;;;;;4948621;28;20283;-69
2022/12/20 11:30:59;;;;;;;12.20;5.80;;;10.30;99.90;;;;;;4944352;28;20208;-68
2022/12/20 11:33:41;;;;;;;11.80;4.77;;;10.30;99.90;;;;;;4940610;28;20202;-69
2022/12/20 11:36:17;;;;;;;5.20;4.60;;;10.40;99.90;;;;;;4944128;28;20226;-69
2022/12/20 11:38:50;;;;;;;12.30;5.23;;;10.30;99.90;;;;;;4946008;28;20210;-69
2022/12/20 11:41:25;;;;;;;6.23;5.57;;;10.30;99.90;;;;;;4958007;28;20299;-69
2022/12/20 11:44:05;;;;;;;8.73;5.00;;;10.30;99.90;;;;;;4970710;28;20200;-68
2022/12/20 11:47:26;;;;;;;6.37;5.03;;;10.40;99.90;;;;;;4989054;28;20216;-69
2022/12/20 11:50:27;;;;;;;5.60;4.43;;;10.30;99.90;;;;;;4937927;28;20218;-69
2022/12/20 11:53:00;;;;;;;5.23;4.73;;;10.30;99.90;;;;;;4971499;28;20217;-69
2022/12/20 11:55:33;;;;;;;6.70;4.70;;;10.30;99.90;;;;;;4947701;28;20651;-69
2022/12/20 11:58:10;;;;;;;9.93;5.27;;;10.30;99.90;;;;;;4944643;28;20685;-69
2022/12/20 12:00:53;;;;;;;9.20;5.20;;;10.30;99.90;;;;;;4943123;28;20300;-69
2022/12/20 12:03:29;;;;;;;10.87;5.03;;;10.30;99.90;;;;;;4937108;28;20215;-69
2022/12/20 12:06:02;;;;;;;9.23;5.20;;;10.30;99.90;;;;;;4942140;28;20637;-68
2022/12/20 12:08:40;;;;;;;6.50;5.07;;;10.20;99.90;;;;;;4943852;28;20234;-69
2022/12/20 12:11:14;;;;;;;10.60;5.27;;;10.30;99.90;;;;;;4966738;28;20192;-69
2022/12/20 12:14:05;;;;;;;9.57;5.27;;;10.30;99.90;;;;;;4950871;28;21034;-69
2022/12/20 12:16:37;;;;;;;8.73;5.27;;;10.20;99.90;;;;;;4949752;28;20222;-69
2022/12/20 12:19:10;;;;;;;5.70;4.90;;;10.20;99.90;;;;;;4950777;28;20579;-69
2022/12/20 12:21:45;;;;;;;6.10;4.90;;;10.20;99.90;;;;;;4951861;28;20207;-69
2022/12/20 12:24:21;;;;;;;5.07;4.57;;;10.20;99.90;;;;;;4946833;28;20586;-69
2022/12/20 12:26:51;;;;;;;7.97;4.93;;;10.20;99.90;;;;;;4947491;28;20679;-68
2022/12/20 12:29:21;;;;;;;6.07;4.53;;;10.20;99.90;;;;;;4952108;28;20207;-69
2022/12/20 12:31:55;;;;;;;10.23;5.53;;;10.20;99.90;;;;;;4944756;28;20449;-69
2022/12/20 12:34:44;;;;;;;11.47;5.03;;;10.20;99.90;;;;;;4968540;28;20677;-69
2022/12/20 12:37:54;;;;;;;9.57;5.17;;;10.20;99.90;;;;;;4950539;28;20204;-69
2022/12/20 12:41:06;;;;;;;10.97;5.10;;;10.20;99.90;;;;;;4976643;28;20195;-69
2022/12/20 12:43:53;;;;;;;6.50;4.83;;;10.20;99.90;;;;;;4946365;28;20204;-69
2022/12/20 12:46:27;;;;;;;6.47;5.20;;;10.10;99.90;;;;;;4951607;28;20200;-69
2022/12/20 12:49:01;;;;;;;9.13;5.47;;;10.10;99.90;;;;;;4948645;28;20196;-69
2022/12/20 12:51:33;;;;;;;9.77;5.40;;;10.10;99.90;;;;;;4958388;28;20287;-69
2022/12/20 12:54:18;;;;;;;6.23;5.67;;;10.10;99.90;;;;;;4987984;28;20696;-69
2022/12/20 12:56:47;;;;;;;6.03;5.30;;;10.10;99.90;;;;;;4957019;28;20196;-69
2022/12/20 12:59:39;;;;;;;6.50;5.43;;;10.10;99.90;;;;;;4949826;28;20236;-69
2022/12/20 13:02:48;;;;;;;7.30;5.77;;;10.00;99.90;;;;;;4942940;28;20682;-69
2022/12/20 13:05:44;;;;;;;6.33;5.47;;;10.00;99.90;;;;;;4944585;28;20538;-69
2022/12/20 13:08:17;;;;;;;9.53;5.60;;;10.10;99.90;;;;;;4953979;28;20589;-69
2022/12/20 13:11:13;;;;;;;6.30;5.13;;;10.00;99.90;;;;;;4972443;28;20204;-69
2022/12/20 13:13:42;;;;;;;5.70;5.20;;;10.00;99.90;;;;;;4944196;28;20779;-69
2022/12/20 13:16:13;;;;;;;9.33;5.53;;;10.10;99.90;;;;;;4946978;28;20204;-69
2022/12/20 13:19:11;;;;;;;8.10;5.37;;;10.00;99.90;;;;;;4955025;28;20224;-69
2022/12/20 13:21:41;;;;;;;9.03;5.37;;;10.10;99.90;;;;;;4947152;28;20208;-69
2022/12/20 13:24:51;;;;;;;7.70;5.40;;;10.00;99.90;;;;;;4982125;28;20232;-69
2022/12/20 13:27:40;;;;;;;8.67;5.83;;;10.10;99.90;;;;;;4954865;28;20216;-69
2022/12/20 13:30:25;;;;;;;9.70;5.70;;;10.00;99.90;;;;;;4955061;28;20231;-69
2022/12/20 13:33:23;;;;;;;6.13;5.53;;;10.00;99.90;;;;;;4949267;29;20196;-69
2022/12/20 13:36:33;;;;;;;11.90;6.60;;;10.00;99.90;;;;;;4949508;29;20234;-69
2022/12/20 13:39:25;;;;;;;11.50;6.70;;;10.10;99.90;;;;;;4944970;28;20300;-69